KINT/INT METAR and TAF weather

Enter ICAO airport designator
Station Type Date Time Source
KINT METAR 2019/10/15 20:54 UTC NOAA

KINT 152054Z 17005KT 10SM CLR 22/06 A3006 RMK AO2 SLP176 T02220056 56015 $


Station Type Date Time Source
KINT Decoded METAR 2019/10/15 20:54 UTC NOAA

WINSTON SALEM SMITH REYNOLDS, NC, United States (KINT) 36-08N 80-14W 291M
Oct 15, 2019 - 04:54 PM EDT / 2019.10.15 2054 UTC
Wind: from the S (170 degrees) at 6 MPH (5 KT):0
Visibility: 10 mile(s):0
Sky conditions: clear
Temperature: 72.0 F (22.2 C)
Dew Point: 42.1 F (5.6 C)
Relative Humidity: 33%
Pressure (altimeter): 30.06 in. Hg (1017 hPa)
Pressure tendency: 0.04 inches (1.5 hPa) lower than three hours ago
ob: KINT 152054Z 17005KT 10SM CLR 22/06 A3006 RMK AO2 SLP176 T02220056 56015
cycle: 21

Station Type Date Time Source
KINT TAF 2019/10/15 18:22 UTC NOAA

TAF KINT 151720Z 1518/1618 11002KT P6SM FEW250
FM152000 15005KT P6SM BKN250
FM161000 18002KT P6SM -SHRA OVC015
FM161400 20006KT 4SM RA BR SCT004 OVC009
FM161700 30008G16KT P6SM FEW025 SCT250

Example: see airport list